ěÝzenÝ letovÚho provozu ╚eskÚ republiky
Letiste: LKPD Aktualizace: 17.04.2021 19:26:24  UTC
 METAR LKPD 17.04. 19:30 ...
METAR LKPD 171930Z 26004KT 9999 SCT026 OVC033 04/03 Q1020 NOSIG RMK BLU BLU=
 TAF LKPD 17.04. 17:00 ...
TAF LKPD 171700Z 1718/1818 26005KT 9999 BKN017      TEMPO 1719/1809 VRB02KT 6000 BKN008      PROB40 TEMPO 1722/1808 2500 DZ BR BKN005      BECMG 1809/1812 VRB02KT BKN025      TEMPO 1811/1817 34008KT 8000 SHRA BKN020=